createdAt,value
2023-05-22T00:01:02.700Z,14.70
2023-05-22T00:03:29.769Z,14.70
2023-05-22T00:05:58.203Z,14.70
2023-05-22T00:08:28.631Z,14.70
2023-05-22T00:10:58.292Z,14.70
2023-05-22T00:13:32.701Z,14.70
2023-05-22T00:15:59.330Z,14.70
2023-05-22T00:18:28.106Z,14.60
2023-05-22T00:20:59.228Z,14.60
2023-05-22T00:23:27.511Z,14.60
2023-05-22T00:25:54.718Z,14.50
2023-05-22T00:28:27.850Z,14.50
2023-05-22T00:31:00.824Z,14.50
2023-05-22T00:33:27.553Z,14.50
2023-05-22T00:35:56.478Z,14.50
2023-05-22T00:38:32.092Z,14.50
2023-05-22T00:41:00.178Z,14.40
2023-05-22T00:43:29.091Z,14.30
2023-05-22T00:45:56.136Z,14.30
2023-05-22T00:48:23.796Z,14.40
2023-05-22T00:50:54.748Z,14.40
2023-05-22T00:53:23.411Z,14.40
2023-05-22T00:55:53.787Z,14.30
2023-05-22T00:58:27.786Z,14.40
2023-05-22T01:00:58.755Z,14.50
2023-05-22T01:03:25.563Z,14.40
2023-05-22T01:05:55.512Z,14.40
2023-05-22T01:08:23.719Z,14.30
2023-05-22T01:11:22.558Z,14.30
2023-05-22T01:14:14.570Z,14.30
2023-05-22T01:17:21.825Z,14.30
2023-05-22T01:20:00.437Z,14.40
2023-05-22T01:22:42.705Z,14.50
2023-05-22T01:25:52.232Z,14.40
2023-05-22T01:28:22.862Z,14.40
2023-05-22T01:31:15.083Z,14.40
2023-05-22T01:33:48.931Z,14.40
2023-05-22T01:36:19.543Z,14.40
2023-05-22T01:38:49.835Z,14.40
2023-05-22T01:41:20.579Z,14.30
2023-05-22T01:44:13.998Z,14.20
2023-05-22T01:46:40.750Z,14.20
2023-05-22T01:49:09.950Z,14.20
2023-05-22T01:57:46.486Z,14.20
2023-05-22T02:00:16.683Z,14.20
2023-05-22T02:02:50.478Z,14.20
2023-05-22T02:05:23.947Z,14.10
2023-05-22T02:07:55.250Z,14.10
2023-05-22T02:10:23.249Z,14.00
2023-05-22T02:12:50.194Z,13.80
2023-05-22T02:15:18.292Z,13.80
2023-05-22T02:17:45.762Z,13.70
2023-05-22T02:20:14.879Z,13.70
2023-05-22T02:22:46.034Z,13.70
2023-05-22T02:25:13.856Z,13.70
2023-05-22T02:27:46.927Z,13.80
2023-05-22T02:30:14.917Z,13.80
2023-05-22T02:32:42.898Z,13.90
2023-05-22T02:35:11.044Z,13.80
2023-05-22T02:37:42.948Z,13.90
2023-05-22T02:40:10.368Z,13.90
2023-05-22T02:42:39.278Z,13.90
2023-05-22T02:45:07.001Z,13.90
2023-05-22T02:47:36.135Z,13.70
2023-05-22T02:50:03.020Z,13.60
2023-05-22T02:52:30.877Z,13.60
2023-05-22T02:54:59.749Z,13.50
2023-05-22T02:57:28.787Z,13.40
2023-05-22T02:59:59.065Z,13.30
2023-05-22T03:02:27.660Z,13.30
2023-05-22T03:04:54.492Z,13.30
2023-05-22T03:07:24.973Z,13.30
2023-05-22T03:09:52.949Z,13.20
2023-05-22T03:12:21.409Z,13.20
2023-05-22T03:14:51.949Z,13.30
2023-05-22T03:17:19.920Z,13.20
2023-05-22T03:19:47.043Z,13.20
2023-05-22T03:22:13.835Z,13.20
2023-05-22T03:25:12.141Z,13.10
2023-05-22T03:27:42.259Z,13.10
2023-05-22T03:30:10.024Z,13.00
2023-05-22T03:32:39.536Z,13.00
2023-05-22T03:35:06.878Z,13.00
2023-05-22T03:37:37.054Z,13.00
2023-05-22T03:40:06.943Z,13.00
2023-05-22T03:42:35.336Z,13.00
2023-05-22T03:45:04.802Z,13.00
2023-05-22T03:47:38.109Z,13.00
2023-05-22T03:50:07.315Z,12.90
2023-05-22T03:52:34.046Z,12.90
2023-05-22T03:55:01.291Z,12.90
2023-05-22T03:57:29.738Z,13.00
2023-05-22T04:00:08.788Z,13.00
2023-05-22T04:02:44.534Z,13.00
2023-05-22T04:05:12.681Z,12.90
2023-05-22T04:07:40.109Z,12.90
2023-05-22T04:10:07.893Z,12.90
2023-05-22T04:12:37.075Z,12.90
2023-05-22T04:23:53.611Z,13.00
2023-05-22T04:26:20.657Z,13.00
2023-05-22T04:28:49.508Z,13.10
2023-05-22T04:31:17.240Z,13.20
2023-05-22T04:33:47.808Z,13.20
2023-05-22T04:36:17.349Z,13.20
2023-05-22T04:38:47.381Z,13.20
2023-05-22T04:41:19.227Z,13.20
2023-05-22T04:43:53.625Z,13.30
2023-05-22T04:46:21.188Z,13.30
2023-05-22T04:48:48.759Z,13.30
2023-05-22T04:51:17.772Z,13.30
2023-05-22T04:53:49.335Z,13.40
2023-05-22T04:56:31.798Z,13.40
2023-05-22T04:59:08.485Z,13.40
2023-05-22T05:01:44.995Z,13.50
2023-05-22T05:04:17.449Z,13.50
2023-05-22T05:06:47.803Z,13.60
2023-05-22T05:09:16.880Z,13.70
2023-05-22T05:11:45.896Z,13.70
2023-05-22T05:14:16.133Z,13.70
2023-05-22T05:22:31.734Z,13.90
2023-05-22T05:25:01.593Z,14.00
2023-05-22T05:27:29.202Z,14.00
2023-05-22T05:29:59.136Z,14.10
2023-05-22T05:32:41.065Z,14.20
2023-05-22T05:35:26.674Z,14.30
2023-05-22T05:38:09.506Z,14.40
2023-05-22T05:40:43.803Z,14.50
2023-05-22T05:43:16.910Z,14.60
2023-05-22T05:45:46.143Z,14.70
2023-05-22T05:48:16.852Z,14.80
2023-05-22T05:50:46.650Z,14.90
2023-05-22T05:53:18.954Z,15.00
2023-05-22T05:55:56.032Z,15.10
2023-05-22T05:58:24.891Z,15.20
2023-05-22T06:01:04.275Z,15.30
2023-05-22T06:03:34.893Z,15.40
2023-05-22T06:06:29.445Z,15.50
2023-05-22T06:09:18.096Z,15.60
2023-05-22T06:12:17.614Z,15.80
2023-05-22T06:14:46.805Z,15.90
2023-05-22T06:17:21.029Z,16.00
2023-05-22T06:19:51.128Z,16.10
2023-05-22T06:22:18.432Z,16.30
2023-05-22T06:24:53.933Z,16.40
2023-05-22T06:27:28.386Z,16.50
2023-05-22T06:36:00.366Z,16.90
2023-05-22T06:38:29.270Z,17.10
2023-05-22T06:40:59.377Z,17.20
2023-05-22T06:43:27.443Z,17.40
2023-05-22T06:46:06.696Z,17.50
2023-05-22T06:49:13.646Z,17.60
2023-05-22T06:51:46.611Z,17.70
2023-05-22T06:54:19.125Z,17.80
2023-05-22T06:56:53.848Z,17.90
2023-05-22T06:59:23.257Z,18.10
2023-05-22T07:02:13.319Z,18.20
2023-05-22T07:05:00.848Z,18.30
2023-05-22T07:07:41.708Z,18.50
2023-05-22T07:10:12.333Z,18.60
2023-05-22T07:12:40.007Z,18.70
2023-05-22T07:15:11.554Z,18.80
2023-05-22T07:17:44.891Z,19.00
2023-05-22T07:20:15.391Z,19.10
2023-05-22T07:22:47.761Z,19.30
2023-05-22T07:25:17.094Z,19.40
2023-05-22T07:27:47.068Z,19.60
2023-05-22T07:30:25.602Z,19.70
2023-05-22T07:33:01.166Z,19.80
2023-05-22T07:35:34.856Z,20.00
2023-05-22T07:38:05.182Z,20.10
2023-05-22T07:40:45.534Z,20.20
2023-05-22T07:43:17.934Z,20.40
2023-05-22T07:45:46.998Z,20.50
2023-05-22T07:48:19.395Z,20.70
2023-05-22T07:50:54.866Z,20.80
2023-05-22T07:53:25.992Z,20.90
2023-05-22T07:56:03.384Z,21.00
2023-05-22T07:58:36.671Z,21.10
2023-05-22T08:01:09.412Z,21.20
2023-05-22T08:03:38.483Z,21.30
2023-05-22T08:06:07.049Z,21.40
2023-05-22T08:08:40.126Z,21.50
2023-05-22T08:11:15.255Z,21.60
2023-05-22T08:13:43.234Z,21.70
2023-05-22T08:16:11.820Z,21.70
2023-05-22T08:18:52.770Z,21.60
2023-05-22T08:21:24.866Z,21.50
2023-05-22T08:23:53.248Z,21.40
2023-05-22T08:26:20.914Z,21.40
2023-05-22T08:28:51.739Z,21.50
2023-05-22T08:31:20.974Z,21.40
2023-05-22T08:33:50.867Z,21.50
2023-05-22T08:36:23.055Z,21.60
2023-05-22T08:38:54.603Z,21.60
2023-05-22T08:41:27.703Z,21.90
2023-05-22T08:43:55.738Z,22.20
2023-05-22T08:58:10.975Z,23.80
2023-05-22T09:00:43.603Z,24.10
2023-05-22T09:03:16.047Z,24.20
2023-05-22T09:05:53.103Z,24.40
2023-05-22T09:08:26.739Z,24.50
2023-05-22T09:10:57.064Z,24.60
2023-05-22T09:13:31.866Z,24.60
2023-05-22T09:16:23.001Z,24.60
2023-05-22T09:18:54.000Z,24.90
2023-05-22T09:24:02.368Z,25.00
2023-05-22T09:26:34.633Z,24.80
2023-05-22T09:29:02.902Z,24.70
2023-05-22T09:31:42.214Z,24.60
2023-05-22T09:34:18.332Z,24.90
2023-05-22T09:36:49.947Z,25.30
2023-05-22T09:39:20.913Z,25.70
2023-05-22T10:14:08.440Z,26.60
2023-05-22T10:34:09.262Z,26.30
2023-05-22T10:37:23.837Z,26.50
2023-05-22T10:52:08.232Z,28.80
2023-05-22T11:03:22.476Z,29.60
2023-05-22T11:12:36.756Z,29.50
2023-05-22T11:15:29.989Z,29.60
2023-05-22T11:18:02.432Z,29.90
2023-05-22T12:23:00.119Z,30.60
2023-05-22T12:41:45.084Z,30.80
2023-05-22T12:44:19.007Z,30.60
2023-05-22T13:29:38.595Z,29.60
2023-05-22T13:37:59.499Z,29.20
2023-05-22T13:43:39.437Z,29.10
2023-05-22T13:46:06.327Z,28.90
2023-05-22T14:34:04.395Z,30.30
2023-05-22T15:09:10.996Z,30.50
2023-05-22T15:11:37.796Z,30.10
2023-05-22T15:17:08.986Z,29.60
2023-05-22T15:28:50.424Z,29.10
2023-05-22T15:43:18.990Z,28.90
2023-05-22T15:52:17.694Z,28.30
2023-05-22T15:57:41.094Z,27.30
2023-05-22T16:06:40.754Z,26.50
2023-05-22T16:09:12.157Z,26.50
2023-05-22T16:11:42.733Z,26.50
2023-05-22T16:14:12.762Z,26.40
2023-05-22T16:16:41.591Z,26.30
2023-05-22T16:25:00.529Z,26.50
2023-05-22T16:27:27.247Z,26.50
2023-05-22T16:32:59.331Z,26.40
2023-05-22T16:38:26.341Z,26.30
2023-05-22T16:40:55.310Z,26.20
2023-05-22T16:43:24.313Z,26.00
2023-05-22T16:45:51.589Z,25.80
2023-05-22T16:48:18.527Z,25.70
2023-05-22T16:53:36.675Z,25.50
2023-05-22T17:11:35.423Z,24.50
2023-05-22T17:17:06.278Z,24.40
2023-05-22T17:19:33.130Z,24.40
2023-05-22T17:22:01.412Z,24.20
2023-05-22T17:24:29.304Z,24.10
2023-05-22T17:54:58.521Z,20.90
2023-05-22T17:57:35.740Z,20.80
2023-05-22T18:11:30.271Z,21.10
2023-05-22T18:16:53.409Z,21.10
2023-05-22T19:33:24.168Z,19.80
2023-05-22T19:45:10.970Z,19.40
2023-05-22T19:47:37.984Z,19.40
2023-05-22T19:53:11.321Z,19.30
2023-05-22T19:55:47.997Z,19.40
2023-05-22T19:58:16.678Z,19.30
2023-05-22T20:09:38.593Z,19.10
2023-05-22T20:18:21.959Z,19.10
2023-05-22T20:23:58.464Z,19.00
2023-05-22T20:41:33.464Z,18.80
2023-05-22T21:13:28.961Z,18.20
2023-05-22T21:36:50.190Z,17.30
2023-05-22T21:39:17.394Z,17.30
2023-05-22T21:59:32.498Z,16.70
2023-05-22T22:20:01.037Z,16.90
2023-05-22T22:31:16.311Z,16.80
2023-05-22T22:40:01.012Z,16.70
2023-05-22T22:42:31.507Z,16.50
2023-05-22T22:54:45.014Z,16.40
2023-05-22T23:00:12.599Z,16.40
